Aérodrome :
LOGIN :

S'inscrire | Disclaimer

   EN    FR    IT 

 










Légende :    VFR   VFR Marginal   IFR   IFR Intensif   IFR Très Intensif
Visi : 
Plafond : 
>= 8 km
>= 3000ft
5 à 8 km
1000 à 3000 ft
1500m à 5 km
500 à 1000 ft
800 à 1500m
200 à 500 ft
< 800m
< 200 ft
Symboles :   Orages  Brouillard  Fortes neiges  Fortes précipitations  Vent > 20 kt
SIGMETs :   Divers  Orages  Givrage  Turbulence  Onde Orograph.  Cendres Volcan.






- Altitude de l'aérodrome : 794 ft


LKCV - Čáslav Air Base

DERNIER METAR :
  • 052000Z 17007KT 9999 OVC014 M00/M04 Q1023 NOSIG RMK WHT WHT

METARs EXPIRÉS :
  • 051900Z 18007KT 9999 OVC015 M00/M03 Q1023 NOSIG RMK WHT WHT
  • 051800Z 18009KT 9999 OVC015 M01/M04 Q1023 NOSIG RMK WHT WHT

TAF TAF LKCV
Valide du 05 à 18h jusqu'au 06 à 18h UTC


051700Z 0518/0618 15006KT 9999 BKN017
PROB40
TEMPO 0600/0608 BKN012
BECMG 0608/0610 CAVOK
BECMG 0612/0614 21006KT



MET'MAP, la Météo Aéronautique d'un coup d'oeil ! - Copyright ORBIFLY Décembre 2007 - Disclaimer

ORBIFLY MET'MAP TEAM :

Programmation & Développement : Alexandra Zaïnal
Sur une idée originale de : Baudouin d'Aumeries
Assistance à la programmation : Marc-Olivier Méhu
Soutien technique & logistique : Manuel Goepfert

Contact : metmap@orbifly.com




SOURCES & CREDITS :

   NOAA